Time;durP1;ratioP1;P1;durP2;ratioP2;P2;SDS_P1;SDS_P2;PMS_P1;PMS_P2;Temp;Humidity;BMP_temperature;BMP_pressure;BME280_temperature;BME280_humidity;BME280_pressure;Samples;Min_cycle;Max_cycle;Signal;HPM_P1;HPM_P2
2023/01/05 00:02:23;;;;;;;21.05;4.30;;;9.10;99.90;;;;;;5141260;27;20597;-57
2023/01/05 00:04:49;;;;;;;20.73;3.38;;;9.40;99.90;;;;;;5158261;27;20069;-58
2023/01/05 00:07:15;;;;;;;26.77;4.65;;;9.30;99.90;;;;;;5161030;27;20054;-58
2023/01/05 00:09:40;;;;;;;23.63;3.65;;;9.20;99.90;;;;;;5162240;27;20041;-58
2023/01/05 00:23:05;;;;;;;19.63;3.00;;;9.10;99.90;;;;;;5161520;27;20062;-58
2023/01/05 00:25:36;;;;;;;24.33;3.63;;;9.20;99.90;;;;;;5160750;27;20053;-55
2023/01/05 00:28:03;;;;;;;20.55;4.63;;;9.30;99.90;;;;;;5161253;27;20106;-58
2023/01/05 00:30:33;;;;;;;22.88;3.38;;;9.20;99.90;;;;;;5161977;27;20501;-55
2023/01/05 00:32:58;;;;;;;21.33;3.40;;;9.00;99.90;;;;;;5160716;27;20037;-58
2023/01/05 00:35:24;;;;;;;26.38;4.80;;;9.00;99.90;;;;;;5161612;27;20043;-57
2023/01/05 00:37:50;;;;;;;23.63;4.18;;;9.30;99.90;;;;;;5159798;27;20039;-57
2023/01/05 00:40:18;;;;;;;24.77;4.47;;;9.10;99.90;;;;;;5142999;27;20046;-58
2023/01/05 00:42:44;;;;;;;24.30;3.97;;;9.20;99.90;;;;;;5160502;27;20062;-58
2023/01/05 00:45:12;;;;;;;22.17;3.38;;;9.10;99.90;;;;;;5161262;27;20042;-58
2023/01/05 00:47:38;;;;;;;26.33;5.30;;;9.10;99.90;;;;;;5161520;27;20474;-58
2023/01/05 00:50:04;;;;;;;26.25;4.63;;;9.30;99.90;;;;;;5160711;27;20060;-58
2023/01/05 00:52:30;;;;;;;22.95;3.83;;;9.30;99.90;;;;;;5160723;27;20042;-57
2023/01/05 00:54:56;;;;;;;26.08;4.05;;;9.10;99.90;;;;;;5151504;27;20043;-58
2023/01/05 00:57:21;;;;;;;20.40;3.20;;;9.10;99.90;;;;;;5140073;27;20068;-58
2023/01/05 00:59:47;;;;;;;19.65;3.25;;;9.20;99.90;;;;;;5139683;27;20440;-58
2023/01/05 01:02:13;;;;;;;24.85;4.40;;;9.10;99.90;;;;;;5139696;27;20143;-61
2023/01/05 01:04:39;;;;;;;16.45;3.80;;;9.20;99.90;;;;;;5140162;27;20514;-58
2023/01/05 01:07:04;;;;;;;24.50;3.72;;;9.30;99.90;;;;;;5139699;27;20057;-57
2023/01/05 01:09:30;;;;;;;23.55;3.25;;;9.40;99.90;;;;;;5117242;27;20395;-58
2023/01/05 01:11:56;;;;;;;24.60;4.78;;;9.30;99.90;;;;;;5139022;27;20130;-58
2023/01/05 01:14:22;;;;;;;18.75;4.30;;;9.40;99.90;;;;;;5139932;27;20043;-57
2023/01/05 01:16:47;;;;;;;17.35;3.00;;;9.50;99.90;;;;;;5139213;27;20050;-59
2023/01/05 01:19:16;;;;;;;12.30;3.20;;;9.40;99.90;;;;;;5139290;27;20046;-59
2023/01/05 01:21:41;;;;;;;22.70;3.28;;;9.50;99.90;;;;;;5139814;27;20543;-58
2023/01/05 01:24:07;;;;;;;21.45;3.88;;;9.40;99.90;;;;;;5138846;27;20039;-58
2023/01/05 01:26:33;;;;;;;16.50;2.83;;;9.30;99.90;;;;;;5140010;27;20043;-58
2023/01/05 01:28:59;;;;;;;18.48;3.40;;;9.30;99.90;;;;;;5138730;27;20043;-58
2023/01/05 01:31:24;;;;;;;20.17;4.15;;;9.40;99.90;;;;;;5121551;27;20058;-58
2023/01/05 01:33:50;;;;;;;17.13;3.53;;;9.30;99.90;;;;;;5138839;27;20067;-61
2023/01/05 01:36:16;;;;;;;25.02;4.03;;;9.40;99.90;;;;;;5139465;27;20607;-58
2023/01/05 01:38:42;;;;;;;21.40;3.78;;;9.50;99.90;;;;;;5139394;27;20489;-58
2023/01/05 01:41:07;;;;;;;26.00;4.75;;;9.50;99.90;;;;;;5120615;27;20042;-58
2023/01/05 01:43:45;;;;;;;19.77;3.50;;;9.60;99.90;;;;;;5121119;27;20051;-58
2023/01/05 01:46:12;;;;;;;18.08;3.13;;;9.50;99.90;;;;;;5138476;27;20118;-58
2023/01/05 01:48:41;;;;;;;15.38;3.22;;;9.50;99.90;;;;;;5139646;27;20168;-57
2023/01/05 01:51:13;;;;;;;22.67;3.75;;;9.40;99.90;;;;;;5138571;27;20039;-57
2023/01/05 01:53:48;;;;;;;18.98;2.85;;;9.40;99.90;;;;;;5138610;27;20091;-58
2023/01/05 01:56:17;;;;;;;17.48;2.97;;;9.30;99.90;;;;;;5158789;27;20064;-57
2023/01/05 01:58:43;;;;;;;20.55;3.67;;;9.30;99.90;;;;;;5159279;27;20042;-57
2023/01/05 02:01:10;;;;;;;16.25;2.85;;;9.40;99.90;;;;;;5159786;27;20042;-57
2023/01/05 02:03:36;;;;;;;22.35;4.00;;;9.50;99.90;;;;;;5159139;27;20125;-57
2023/01/05 02:06:02;;;;;;;18.25;3.28;;;9.60;99.90;;;;;;5159926;27;20041;-57
2023/01/05 02:08:30;;;;;;;28.77;3.80;;;9.50;99.90;;;;;;5159408;27;20378;-57
2023/01/05 02:11:17;;;;;;;23.60;4.05;;;9.40;99.90;;;;;;5141268;27;20107;-57
2023/01/05 02:13:55;;;;;;;20.40;3.58;;;9.40;99.90;;;;;;5159463;27;20072;-57
2023/01/05 02:16:42;;;;;;;16.77;3.05;;;9.50;99.90;;;;;;5159167;27;20042;-58
2023/01/05 02:19:26;;;;;;;17.60;4.28;;;9.50;99.90;;;;;;5159483;27;20502;-57
2023/01/05 02:22:13;;;;;;;15.35;3.83;;;9.40;99.90;;;;;;5141174;27;20074;-57
2023/01/05 02:25:03;;;;;;;14.00;2.80;;;9.40;99.90;;;;;;5158315;27;20467;-57
2023/01/05 02:27:35;;;;;;;24.83;3.63;;;9.40;99.90;;;;;;5159576;27;20050;-58
2023/01/05 02:30:04;;;;;;;;;;;9.40;99.90;;;;;;5160023;27;20068;-57
2023/01/05 02:32:39;;;;;;;25.67;5.43;;;9.30;99.90;;;;;;5140357;27;20028;-57
2023/01/05 02:35:26;;;;;;;22.75;3.20;;;9.30;99.90;;;;;;5159592;27;20090;-57
2023/01/05 02:38:19;;;;;;;22.92;4.05;;;9.40;99.90;;;;;;5159009;27;20042;-58
2023/01/05 02:40:48;;;;;;;16.88;2.92;;;9.40;99.90;;;;;;5159117;27;20038;-57
2023/01/05 02:43:19;;;;;;;16.85;3.60;;;9.30;99.90;;;;;;5159332;27;20071;-57
2023/01/05 02:45:45;;;;;;;24.45;4.00;;;9.40;99.90;;;;;;5158439;27;20088;-56
2023/01/05 02:48:11;;;;;;;21.02;3.67;;;9.40;99.90;;;;;;5159440;27;20490;-56
2023/01/05 02:51:04;;;;;;;21.55;4.10;;;9.30;99.90;;;;;;5158499;27;20035;-55
2023/01/05 02:53:38;;;;;;;16.77;3.25;;;9.40;99.90;;;;;;5155615;27;20086;-58
2023/01/05 02:56:14;;;;;;;19.85;4.07;;;9.30;99.90;;;;;;5140462;27;20051;-57
2023/01/05 02:58:46;;;;;;;17.63;3.72;;;9.30;99.90;;;;;;5137624;28;20086;-56
2023/01/05 03:01:35;;;;;;;20.50;4.00;;;9.40;99.90;;;;;;5139094;27;20051;-57
2023/01/05 03:04:13;;;;;;;20.55;3.40;;;9.40;99.90;;;;;;5142320;27;20050;-56
2023/01/05 03:06:55;;;;;;;21.50;3.88;;;9.40;99.90;;;;;;5141978;27;20042;-57
2023/01/05 03:09:27;;;;;;;27.98;4.53;;;9.40;99.90;;;;;;5142740;27;20791;-57
2023/01/05 03:15:05;;;;;;;18.80;3.63;;;9.30;99.90;;;;;;5142124;27;20430;-57
2023/01/05 03:17:55;;;;;;;26.50;5.90;;;9.30;99.90;;;;;;5141981;27;20367;-57
2023/01/05 03:20:26;;;;;;;19.52;4.00;;;9.30;99.90;;;;;;5129497;27;20130;-57
2023/01/05 03:37:35;;;;;;;23.35;4.30;;;9.50;99.90;;;;;;5141181;27;20119;-57
2023/01/05 03:40:04;;;;;;;18.92;4.55;;;9.40;99.90;;;;;;5142298;27;20069;-57
2023/01/05 03:42:30;;;;;;;17.40;3.70;;;9.40;99.90;;;;;;5141278;27;20120;-57
2023/01/05 03:44:57;;;;;;;19.65;3.70;;;9.50;99.90;;;;;;5141681;27;20031;-57
2023/01/05 03:47:23;;;;;;;21.88;2.95;;;9.50;99.90;;;;;;5142047;27;20043;-57
2023/01/05 03:49:50;;;;;;;21.40;3.50;;;9.50;99.90;;;;;;5141326;27;20118;-58
2023/01/05 03:52:15;;;;;;;18.95;3.13;;;9.40;99.90;;;;;;5141513;27;20051;-58
2023/01/05 03:54:41;;;;;;;27.42;4.45;;;9.50;99.90;;;;;;5147243;27;20523;-58
2023/01/05 03:57:07;;;;;;;24.05;4.65;;;9.40;99.90;;;;;;5162488;27;20085;-58
2023/01/05 03:59:32;;;;;;;17.27;4.10;;;9.40;99.90;;;;;;5161611;27;20042;-58
2023/01/05 04:01:58;;;;;;;23.73;3.10;;;9.50;99.90;;;;;;5162314;27;20476;-58
2023/01/05 04:04:24;;;;;;;20.15;4.38;;;9.40;99.90;;;;;;5143568;27;20386;-57
2023/01/05 04:06:49;;;;;;;27.23;4.90;;;9.40;99.90;;;;;;5142619;27;20043;-58
2023/01/05 04:09:15;;;;;;;19.52;4.60;;;9.40;99.90;;;;;;5143561;27;20031;-58
2023/01/05 04:11:41;;;;;;;25.90;4.30;;;9.30;99.90;;;;;;5161019;27;20102;-58
2023/01/05 04:14:06;;;;;;;24.10;4.63;;;9.40;99.90;;;;;;5142218;27;20046;-58
2023/01/05 04:16:32;;;;;;;25.52;4.10;;;9.30;99.90;;;;;;5161011;27;20050;-58
2023/01/05 04:18:58;;;;;;;22.40;4.03;;;9.50;99.90;;;;;;5162190;27;20034;-57
2023/01/05 04:21:23;;;;;;;20.17;3.70;;;9.40;99.90;;;;;;5161938;27;20072;-57
2023/01/05 04:23:49;;;;;;;21.23;4.90;;;9.40;99.90;;;;;;5161726;27;20102;-58
2023/01/05 04:26:15;;;;;;;21.92;3.30;;;9.50;99.90;;;;;;5162211;27;20046;-58
2023/01/05 04:28:40;;;;;;;22.55;3.38;;;9.40;99.90;;;;;;5142008;27;20103;-58
2023/01/05 04:31:06;;;;;;;24.67;5.07;;;9.40;99.90;;;;;;5161716;27;20058;-59
2023/01/05 04:33:32;;;;;;;22.77;3.25;;;9.50;99.90;;;;;;5160979;27;20092;-59
2023/01/05 04:35:57;;;;;;;21.42;4.03;;;9.50;99.90;;;;;;5161421;27;20038;-58
2023/01/05 04:38:23;;;;;;;20.38;3.38;;;9.50;99.90;;;;;;5160906;27;20096;-58
2023/01/05 04:40:50;;;;;;;24.05;3.95;;;9.50;99.90;;;;;;5142323;27;20289;-58
2023/01/05 04:43:16;;;;;;;25.40;4.85;;;9.50;99.90;;;;;;5161213;27;20049;-57
2023/01/05 04:45:41;;;;;;;24.48;4.97;;;9.40;99.90;;;;;;5160587;27;20089;-58
2023/01/05 04:48:07;;;;;;;21.65;3.60;;;9.50;99.90;;;;;;5161235;27;20374;-57
2023/01/05 04:50:33;;;;;;;24.88;4.18;;;9.40;99.90;;;;;;5160450;27;20050;-58
2023/01/05 04:52:58;;;;;;;22.67;4.03;;;9.40;99.90;;;;;;5161416;27;20043;-57
2023/01/05 04:55:24;;;;;;;19.08;3.15;;;9.50;99.90;;;;;;5147814;27;20035;-57
2023/01/05 04:57:50;;;;;;;18.58;3.70;;;9.50;99.90;;;;;;5140444;27;20039;-58
2023/01/05 05:00:16;;;;;;;24.73;4.00;;;9.40;99.90;;;;;;5140342;27;20043;-57
2023/01/05 05:02:41;;;;;;;18.20;3.38;;;9.40;99.90;;;;;;5139677;27;20046;-57
2023/01/05 05:05:07;;;;;;;20.52;3.67;;;9.50;99.90;;;;;;5139969;27;20039;-58
2023/01/05 05:07:33;;;;;;;19.20;3.40;;;9.40;99.90;;;;;;5139706;27;20042;-57
2023/01/05 05:09:58;;;;;;;21.10;4.20;;;9.40;99.90;;;;;;5140506;27;20043;-57
2023/01/05 05:12:24;;;;;;;21.60;3.88;;;9.40;99.90;;;;;;5139460;27;20036;-57
2023/01/05 05:14:50;;;;;;;22.30;3.38;;;9.40;99.90;;;;;;5140134;27;20097;-57
2023/01/05 05:17:16;;;;;;;23.33;4.05;;;9.30;99.90;;;;;;5140371;27;20045;-57
2023/01/05 05:19:42;;;;;;;18.02;3.67;;;9.50;99.90;;;;;;5120819;27;20039;-56
2023/01/05 05:22:08;;;;;;;16.90;3.63;;;9.50;99.90;;;;;;5121279;27;20027;-56
2023/01/05 05:24:33;;;;;;;25.45;4.55;;;9.50;99.90;;;;;;5138654;27;20043;-57
2023/01/05 05:26:59;;;;;;;22.48;4.03;;;9.50;99.90;;;;;;5139742;27;20055;-57
2023/01/05 05:29:25;;;;;;;22.67;4.47;;;9.40;99.90;;;;;;5120561;27;20053;-57
2023/01/05 05:31:51;;;;;;;23.95;4.80;;;9.40;99.90;;;;;;5139475;27;20049;-57
2023/01/05 05:34:17;;;;;;;22.70;3.70;;;9.50;99.90;;;;;;5139224;27;20071;-57
2023/01/05 05:36:43;;;;;;;27.17;4.53;;;9.50;99.90;;;;;;5120523;27;20526;-57
2023/01/05 05:39:13;;;;;;;25.23;3.97;;;9.50;99.90;;;;;;5104417;27;20039;-58
2023/01/05 05:41:39;;;;;;;25.85;4.63;;;9.40;99.90;;;;;;5120401;27;20151;-58
2023/01/05 05:44:06;;;;;;;23.00;4.32;;;9.40;99.90;;;;;;5139440;27;20043;-58
2023/01/05 05:46:31;;;;;;;22.70;4.72;;;9.50;99.90;;;;;;5138871;27;20043;-58
2023/01/05 05:48:58;;;;;;;25.92;4.05;;;9.40;99.90;;;;;;5120684;27;20043;-58
2023/01/05 05:51:24;;;;;;;27.88;4.07;;;9.50;99.90;;;;;;5120669;27;20059;-59
2023/01/05 05:53:50;;;;;;;28.63;4.82;;;9.40;99.90;;;;;;5139138;27;20137;-58
2023/01/05 05:56:17;;;;;;;18.92;3.63;;;9.40;99.90;;;;;;5159479;27;20057;-58
2023/01/05 05:58:42;;;;;;;22.55;4.28;;;9.40;99.90;;;;;;5159034;27;20469;-61
2023/01/05 06:01:08;;;;;;;27.02;4.78;;;9.40;99.90;;;;;;5160177;27;20041;-57
2023/01/05 06:03:34;;;;;;;20.83;4.88;;;9.50;99.90;;;;;;5159035;27;20095;-58
2023/01/05 06:06:01;;;;;;;19.25;3.88;;;9.40;99.90;;;;;;5160056;27;20047;-58
2023/01/05 06:08:28;;;;;;;19.88;4.72;;;9.50;99.90;;;;;;5159448;27;20126;-57
2023/01/05 06:10:55;;;;;;;18.30;3.75;;;9.50;99.90;;;;;;5159848;27;20046;-58
2023/01/05 06:13:21;;;;;;;20.20;3.92;;;9.40;99.90;;;;;;5160028;27;20370;-58
2023/01/05 06:15:47;;;;;;;24.88;4.65;;;9.40;99.90;;;;;;5140287;27;20126;-58
2023/01/05 06:18:13;;;;;;;21.67;4.03;;;9.20;99.90;;;;;;5159539;27;20074;-58
2023/01/05 06:20:39;;;;;;;23.63;3.65;;;9.40;99.90;;;;;;5140432;27;20087;-58
2023/01/05 06:23:05;;;;;;;18.95;4.45;;;9.20;99.90;;;;;;5159899;27;20118;-58
2023/01/05 06:25:31;;;;;;;25.60;4.43;;;9.00;99.90;;;;;;5159086;27;20066;-58
2023/01/05 06:27:57;;;;;;;24.30;4.07;;;9.00;99.90;;;;;;5159301;27;20061;-58
2023/01/05 06:30:22;;;;;;;24.55;3.90;;;9.10;99.90;;;;;;5123716;27;20134;-58
2023/01/05 06:32:48;;;;;;;19.63;3.78;;;9.20;99.90;;;;;;5158674;27;20121;-58
2023/01/05 06:35:14;;;;;;;21.98;5.05;;;9.10;99.90;;;;;;5159677;27;20039;-59
2023/01/05 06:37:39;;;;;;;18.30;3.67;;;9.20;99.90;;;;;;5158054;27;20068;-59
2023/01/05 06:40:07;;;;;;;22.88;4.30;;;9.20;99.90;;;;;;5141251;27;20447;-61
2023/01/05 06:42:33;;;;;;;32.28;4.20;;;9.00;99.90;;;;;;5159023;27;20031;-59
2023/01/05 06:44:59;;;;;;;28.33;4.05;;;9.00;99.90;;;;;;5159210;27;20035;-59
2023/01/05 06:47:24;;;;;;;25.83;4.82;;;9.00;99.90;;;;;;5159729;27;20034;-58
2023/01/05 06:49:50;;;;;;;26.23;4.07;;;9.10;99.90;;;;;;5140073;27;20043;-58
2023/01/05 06:52:16;;;;;;;21.25;3.70;;;9.20;99.90;;;;;;5155078;27;20046;-57
2023/01/05 06:54:41;;;;;;;25.13;3.58;;;9.10;99.90;;;;;;5138005;28;20039;-58
2023/01/05 06:57:07;;;;;;;26.77;5.32;;;9.10;99.90;;;;;;5138106;28;20111;-58
2023/01/05 06:59:33;;;;;;;25.80;4.45;;;9.30;99.90;;;;;;5102200;28;20043;-58
2023/01/05 07:01:59;;;;;;;24.13;3.90;;;9.10;99.90;;;;;;5119909;28;20038;-58
2023/01/05 07:04:24;;;;;;;20.10;3.95;;;9.10;99.90;;;;;;5138631;28;20043;-58
2023/01/05 07:06:50;;;;;;;20.27;3.75;;;9.10;99.90;;;;;;5137666;28;20107;-58
2023/01/05 07:09:15;;;;;;;19.10;3.95;;;9.10;99.90;;;;;;5138605;28;20054;-58
2023/01/05 07:11:41;;;;;;;26.52;4.10;;;9.20;99.90;;;;;;5137668;28;20046;-58
2023/01/05 07:14:07;;;;;;;25.73;3.97;;;9.20;99.90;;;;;;5138369;28;20070;-58
2023/01/05 07:16:32;;;;;;;21.25;3.92;;;9.10;99.90;;;;;;5137888;28;20039;-58
2023/01/05 07:18:58;;;;;;;27.58;4.38;;;9.20;99.90;;;;;;5120002;28;20050;-58
2023/01/05 07:21:24;;;;;;;21.33;3.88;;;9.10;99.90;;;;;;5138224;28;20051;-58
2023/01/05 07:23:50;;;;;;;22.77;4.47;;;9.10;99.90;;;;;;5137909;28;20039;-58
2023/01/05 07:26:16;;;;;;;16.77;3.85;;;9.00;99.90;;;;;;5138255;28;20059;-57
2023/01/05 07:28:41;;;;;;;25.27;4.20;;;9.00;99.90;;;;;;5137536;28;20473;-58
2023/01/05 07:31:07;;;;;;;28.67;4.85;;;9.00;99.90;;;;;;5138053;28;20054;-58
2023/01/05 07:33:34;;;;;;;21.00;3.67;;;8.90;99.90;;;;;;5137645;28;20143;-58
2023/01/05 07:36:02;;;;;;;23.67;3.50;;;8.90;99.90;;;;;;5138406;28;20490;-57
2023/01/05 07:38:27;;;;;;;18.77;5.20;;;8.90;99.90;;;;;;5137739;28;20035;-57
2023/01/05 07:40:53;;;;;;;23.73;4.50;;;8.90;99.90;;;;;;5138015;28;20059;-57
2023/01/05 07:43:19;;;;;;;18.95;3.83;;;9.10;99.90;;;;;;5137697;28;20054;-58
2023/01/05 07:45:44;;;;;;;23.45;3.85;;;8.90;99.90;;;;;;5137411;28;20035;-58
2023/01/05 07:48:10;;;;;;;23.88;3.97;;;8.90;99.90;;;;;;5139709;27;20490;-58
2023/01/05 07:50:35;;;;;;;19.77;3.50;;;9.00;99.90;;;;;;5136665;27;20039;-58
2023/01/05 07:53:01;;;;;;;21.05;3.60;;;9.00;99.90;;;;;;5119411;27;20043;-58
2023/01/05 07:55:27;;;;;;;25.98;3.83;;;8.90;99.90;;;;;;5150403;27;20051;-57
2023/01/05 07:57:52;;;;;;;25.85;3.35;;;9.00;99.90;;;;;;5158091;27;20091;-58
2023/01/05 08:00:18;;;;;;;23.75;4.03;;;9.10;99.90;;;;;;5158084;27;20100;-58
2023/01/05 08:02:45;;;;;;;19.50;3.67;;;9.10;99.90;;;;;;5157455;27;20046;-57
2023/01/05 08:05:10;;;;;;;18.67;4.10;;;9.00;99.90;;;;;;5158507;27;20043;-57
2023/01/05 08:07:36;;;;;;;26.95;5.35;;;9.10;99.90;;;;;;5138903;27;20066;-58
2023/01/05 08:15:31;;;;;;;19.45;3.33;;;9.10;99.90;;;;;;5147109;27;20043;-58
2023/01/05 08:17:57;;;;;;;18.27;2.90;;;9.10;99.90;;;;;;5156760;27;20375;-58
2023/01/05 08:20:23;;;;;;;19.65;4.70;;;9.10;99.90;;;;;;5157432;27;20043;-58
2023/01/05 08:22:52;;;;;;;20.02;3.58;;;9.10;99.90;;;;;;5139117;27;20095;-58
2023/01/05 08:25:19;;;;;;;20.77;4.55;;;9.20;99.90;;;;;;5157042;27;20085;-58
2023/01/05 08:27:45;;;;;;;22.58;3.55;;;9.10;99.90;;;;;;5158062;27;20078;-59
2023/01/05 08:30:11;;;;;;;19.67;3.75;;;9.20;99.90;;;;;;5158164;27;20050;-57
2023/01/05 08:32:37;;;;;;;20.58;3.75;;;9.10;99.90;;;;;;5157403;27;20118;-57
2023/01/05 08:35:04;;;;;;;22.33;3.90;;;9.20;99.90;;;;;;5157999;27;20039;-57
2023/01/05 08:37:29;;;;;;;22.15;3.63;;;9.10;99.90;;;;;;5137881;27;20050;-57
2023/01/05 08:39:55;;;;;;;25.02;4.18;;;9.20;99.90;;;;;;5138931;27;20403;-57
2023/01/05 08:42:21;;;;;;;22.90;4.30;;;9.20;99.90;;;;;;5156699;27;20035;-57
2023/01/05 08:44:47;;;;;;;23.85;3.75;;;9.10;99.90;;;;;;5138681;27;20045;-57
2023/01/05 08:47:12;;;;;;;26.10;3.90;;;9.20;99.90;;;;;;5139188;27;20050;-57
2023/01/05 08:49:38;;;;;;;24.15;4.10;;;9.10;99.90;;;;;;5156625;27;20035;-57
2023/01/05 08:52:04;;;;;;;22.13;4.78;;;9.10;99.90;;;;;;5138797;27;20069;-57
2023/01/05 08:54:29;;;;;;;20.90;3.72;;;9.20;99.90;;;;;;5152866;27;20069;-57
2023/01/05 08:56:55;;;;;;;23.58;3.92;;;9.00;99.90;;;;;;5142754;27;20073;-56
2023/01/05 08:59:21;;;;;;;20.02;3.83;;;9.00;99.90;;;;;;5135342;27;20047;-56
2023/01/05 09:01:46;;;;;;;24.42;3.55;;;8.90;99.90;;;;;;5136349;27;20054;-57
2023/01/05 09:04:12;;;;;;;25.80;4.55;;;8.90;99.90;;;;;;5136411;27;20039;-55
2023/01/05 09:06:38;;;;;;;20.35;3.22;;;9.10;99.90;;;;;;5129033;27;20434;-57
2023/01/05 09:09:04;;;;;;;20.92;3.70;;;9.10;99.90;;;;;;5138699;27;20073;-56
2023/01/05 09:11:29;;;;;;;27.52;4.18;;;8.90;99.90;;;;;;5156049;27;20261;-57
2023/01/05 09:13:57;;;;;;;18.50;3.85;;;8.90;99.90;;;;;;5156496;27;20047;-57
2023/01/05 09:16:28;;;;;;;18.42;3.58;;;8.90;99.90;;;;;;5156222;27;20035;-56
2023/01/05 09:18:56;;;;;;;18.00;3.35;;;8.90;99.90;;;;;;5157324;27;20122;-57
2023/01/05 09:21:22;;;;;;;17.58;2.40;;;8.90;99.90;;;;;;5156380;27;20533;-57
2023/01/05 09:23:47;;;;;;;14.80;2.42;;;8.80;99.90;;;;;;5155782;27;20057;-57
2023/01/05 09:26:17;;;;;;;13.75;2.20;;;8.90;99.90;;;;;;5156448;27;20055;-56
2023/01/05 09:28:43;;;;;;;10.57;1.75;;;9.00;99.90;;;;;;5156195;27;20232;-57
2023/01/05 09:31:13;;;;;;;18.30;2.03;;;8.80;99.90;;;;;;5156889;27;20038;-55
2023/01/05 09:33:40;;;;;;;11.57;2.13;;;9.00;99.90;;;;;;5155815;27;20053;-56
2023/01/05 09:36:06;;;;;;;15.00;2.72;;;9.00;99.90;;;;;;5120693;27;20080;-58
2023/01/05 09:38:32;;;;;;;16.90;2.67;;;9.00;99.90;;;;;;5120060;27;20047;-56
2023/01/05 09:41:04;;;;;;;18.02;2.13;;;8.90;99.90;;;;;;5156479;27;20131;-58
2023/01/05 09:43:37;;;;;;;18.38;2.80;;;9.00;99.90;;;;;;5156828;27;20047;-54
2023/01/05 09:46:16;;;;;;;20.23;3.08;;;8.90;99.90;;;;;;5155937;27;20042;-57
2023/01/05 09:48:46;;;;;;;16.88;3.08;;;9.00;99.90;;;;;;5156715;27;20042;-55
2023/01/05 09:51:12;;;;;;;20.17;3.15;;;9.00;99.90;;;;;;5155980;27;20062;-54
2023/01/05 09:53:39;;;;;;;17.63;2.58;;;8.90;99.90;;;;;;5156163;27;20102;-54
2023/01/05 09:56:05;;;;;;;14.45;2.70;;;9.00;99.90;;;;;;5137857;27;20054;-55
2023/01/05 09:58:40;;;;;;;17.52;2.63;;;9.10;99.90;;;;;;5134870;27;20043;-57
2023/01/05 10:01:06;;;;;;;22.13;3.03;;;9.00;99.90;;;;;;5135410;27;20043;-57
2023/01/05 10:03:36;;;;;;;19.02;2.95;;;9.10;99.90;;;;;;5134673;27;20062;-56
2023/01/05 10:06:02;;;;;;;22.85;3.70;;;9.10;99.90;;;;;;5117677;27;20043;-57
2023/01/05 10:08:39;;;;;;;19.02;2.97;;;9.00;99.90;;;;;;5138156;27;20123;-59
2023/01/05 10:14:28;;;;;;;23.13;4.15;;;9.00;99.90;;;;;;5138994;27;20054;-54
2023/01/05 10:16:54;;;;;;;16.42;2.72;;;9.00;99.90;;;;;;5099096;27;20059;-55
2023/01/05 10:19:20;;;;;;;16.42;3.20;;;9.00;99.90;;;;;;5137691;27;20090;-55
2023/01/05 10:22:13;;;;;;;18.42;2.85;;;9.10;99.90;;;;;;5138860;27;20513;-53
2023/01/05 10:24:58;;;;;;;21.83;3.20;;;9.10;99.90;;;;;;5119664;28;20103;-56
2023/01/05 10:27:36;;;;;;;20.40;3.38;;;9.10;99.90;;;;;;5138711;27;20057;-57
2023/01/05 10:30:35;;;;;;;17.27;2.60;;;9.10;99.90;;;;;;5141401;27;20050;-56
2023/01/05 10:33:14;;;;;;;15.50;2.47;;;9.30;99.90;;;;;;5118967;27;20087;-57
2023/01/05 10:35:58;;;;;;;10.98;2.10;;;9.20;99.90;;;;;;5149561;27;20050;-57
2023/01/05 10:38:42;;;;;;;15.65;2.53;;;9.30;99.90;;;;;;5138070;28;20086;-57
2023/01/05 10:41:33;;;;;;;12.52;2.40;;;9.40;99.90;;;;;;5137910;28;20610;-57
2023/01/05 10:44:47;;;;;;;12.48;1.92;;;9.30;99.90;;;;;;5138214;28;20098;-57
2023/01/05 10:47:13;;;;;;;11.10;1.88;;;9.40;99.90;;;;;;5115417;28;20082;-56
2023/01/05 10:49:42;;;;;;;11.88;2.30;;;9.40;99.90;;;;;;5137651;28;20043;-55
2023/01/05 10:52:16;;;;;;;10.40;2.40;;;9.40;99.90;;;;;;5120177;28;20043;-57
2023/01/05 10:54:58;;;;;;;13.25;2.17;;;9.50;99.90;;;;;;5137874;28;20071;-58
2023/01/05 10:57:35;;;;;;;11.73;1.98;;;9.60;99.90;;;;;;5138171;28;20047;-56
2023/01/05 11:00:06;;;;;;;13.82;2.70;;;9.70;99.90;;;;;;5138661;28;20059;-57
2023/01/05 11:02:35;;;;;;;15.52;2.40;;;9.70;99.90;;;;;;5137469;28;20329;-56
2023/01/05 11:05:35;;;;;;;15.77;2.67;;;9.60;99.90;;;;;;5138785;28;20095;-56
2023/01/05 11:08:04;;;;;;;16.30;3.17;;;9.60;99.90;;;;;;5137603;28;20419;-56
2023/01/05 11:10:33;;;;;;;14.88;2.28;;;9.60;99.90;;;;;;5138086;28;20491;-56
2023/01/05 11:13:20;;;;;;;14.95;3.08;;;9.70;99.90;;;;;;5138062;28;20047;-56
2023/01/05 11:15:53;;;;;;;14.63;2.33;;;9.60;99.90;;;;;;5137301;28;20133;-57
2023/01/05 11:18:43;;;;;;;12.93;2.38;;;9.60;99.90;;;;;;5119971;28;20118;-57
2023/01/05 11:21:15;;;;;;;17.02;2.20;;;9.50;99.90;;;;;;5138301;28;20124;-57
2023/01/05 11:23:43;;;;;;;16.65;2.95;;;9.70;99.90;;;;;;5140555;27;20555;-57
2023/01/05 11:26:22;;;;;;;16.48;2.65;;;9.70;99.90;;;;;;5142168;27;20414;-58
2023/01/05 11:29:09;;;;;;;19.75;3.17;;;9.60;99.90;;;;;;5141216;27;20035;-58
2023/01/05 11:31:55;;;;;;;14.60;2.75;;;9.50;99.90;;;;;;5123865;27;20085;-58
2023/01/05 11:34:37;;;;;;;18.70;3.00;;;9.50;99.90;;;;;;5142248;27;20054;-58
2023/01/05 11:37:21;;;;;;;14.90;2.85;;;9.50;99.90;;;;;;5140697;27;20051;-58
2023/01/05 11:40:02;;;;;;;19.50;3.53;;;9.50;99.90;;;;;;5142289;27;20056;-57
2023/01/05 11:42:41;;;;;;;19.23;3.17;;;9.70;99.90;;;;;;5141125;27;20366;-57
2023/01/05 11:45:20;;;;;;;15.02;2.35;;;9.60;99.90;;;;;;5141181;27;20051;-57
2023/01/05 11:47:50;;;;;;;15.57;2.92;;;9.70;99.90;;;;;;5141691;27;20051;-57
2023/01/05 11:50:25;;;;;;;14.88;3.20;;;9.60;99.90;;;;;;5140547;27;20053;-57
2023/01/05 11:52:53;;;;;;;18.02;2.53;;;9.60;99.90;;;;;;5141950;27;20122;-57
2023/01/05 11:55:19;;;;;;;15.18;2.60;;;9.60;99.90;;;;;;5153156;27;20053;-57
2023/01/05 11:57:46;;;;;;;17.20;3.60;;;9.60;99.90;;;;;;5161606;27;20074;-57
2023/01/05 12:00:52;;;;;;;17.35;3.15;;;9.60;99.90;;;;;;5158146;27;20035;-57
2023/01/05 12:03:34;;;;;;;14.80;2.60;;;9.60;99.90;;;;;;5122470;27;20074;-57
2023/01/05 12:06:36;;;;;;;15.70;2.60;;;9.60;99.90;;;;;;5122797;27;20047;-57
2023/01/05 12:09:17;;;;;;;13.20;2.50;;;9.70;99.90;;;;;;5141622;27;20076;-57
2023/01/05 12:12:10;;;;;;;13.10;2.40;;;9.80;99.90;;;;;;5140130;27;20054;-57
2023/01/05 12:14:57;;;;;;;12.38;1.58;;;9.80;99.90;;;;;;5139187;27;20047;-57
2023/01/05 12:17:33;;;;;;;12.63;2.20;;;9.70;99.90;;;;;;5141209;27;20092;-57
2023/01/05 12:20:07;;;;;;;14.73;1.98;;;9.70;99.90;;;;;;5140151;27;20043;-56
2023/01/05 12:23:13;;;;;;;11.13;2.03;;;9.80;99.90;;;;;;5140995;27;20043;-57
2023/01/05 12:26:03;;;;;;;13.23;2.63;;;9.70;99.90;;;;;;5140767;27;20051;-56
2023/01/05 12:28:41;;;;;;;11.70;2.45;;;9.70;99.90;;;;;;5139938;27;20569;-57
2023/01/05 12:31:44;;;;;;;13.38;2.20;;;9.80;99.90;;;;;;5140741;27;20050;-57
2023/01/05 12:34:55;;;;;;;16.80;2.33;;;9.80;99.90;;;;;;5139082;27;20047;-56
2023/01/05 12:37:50;;;;;;;14.55;2.13;;;9.90;99.90;;;;;;5121516;27;20122;-56
2023/01/05 12:40:43;;;;;;;18.45;2.60;;;9.80;99.90;;;;;;5103883;27;20043;-57
2023/01/05 12:43:50;;;;;;;14.18;2.70;;;9.80;99.90;;;;;;5121774;27;20039;-56
2023/01/05 12:46:25;;;;;;;14.57;2.53;;;9.80;99.90;;;;;;5082622;27;20059;-57
2023/01/05 12:48:58;;;;;;;13.80;3.45;;;9.80;99.90;;;;;;5140883;27;20121;-57
2023/01/05 12:51:36;;;;;;;16.63;2.70;;;9.80;99.90;;;;;;5140284;27;20060;-57
2023/01/05 12:54:45;;;;;;;16.52;2.92;;;9.70;99.90;;;;;;5140455;27;20134;-54
2023/01/05 12:57:21;;;;;;;14.85;3.40;;;9.80;99.90;;;;;;5093476;27;20140;-56
2023/01/05 13:00:03;;;;;;;14.00;2.72;;;9.70;99.90;;;;;;5160714;27;20042;-56
2023/01/05 13:02:36;;;;;;;14.68;2.78;;;9.80;99.90;;;;;;5141502;27;20042;-55
2023/01/05 13:05:21;;;;;;;16.80;2.85;;;9.90;99.90;;;;;;5160740;27;20049;-57
2023/01/05 13:08:14;;;;;;;18.40;3.45;;;9.90;99.90;;;;;;5160316;27;20049;-58
2023/01/05 13:11:03;;;;;;;19.33;3.58;;;9.90;99.90;;;;;;5160366;27;20344;-57
2023/01/05 13:13:39;;;;;;;21.00;3.17;;;9.90;99.90;;;;;;5141834;27;20604;-58
2023/01/05 13:16:15;;;;;;;18.48;3.47;;;9.80;99.90;;;;;;5160424;27;20046;-57
2023/01/05 13:18:47;;;;;;;14.82;3.17;;;9.80;99.90;;;;;;5160529;27;20046;-57
2023/01/05 13:21:14;;;;;;;17.38;3.47;;;9.80;99.90;;;;;;5160434;27;20107;-58
2023/01/05 13:23:44;;;;;;;17.00;3.50;;;9.80;99.90;;;;;;5160332;27;20046;-57
2023/01/05 13:26:14;;;;;;;18.98;3.17;;;9.80;99.90;;;;;;5141891;27;20418;-57
2023/01/05 13:28:40;;;;;;;18.38;2.90;;;9.80;99.90;;;;;;5159978;27;20171;-57
2023/01/05 13:31:14;;;;;;;21.40;3.63;;;9.80;99.90;;;;;;5160642;27;20478;-58
2023/01/05 13:34:05;;;;;;;15.07;3.33;;;9.90;99.90;;;;;;5160140;27;20035;-58
2023/01/05 13:36:42;;;;;;;16.50;2.90;;;9.80;99.90;;;;;;5159904;27;20058;-58
2023/01/05 13:39:29;;;;;;;13.30;2.90;;;9.70;99.90;;;;;;5160456;27;20448;-58
2023/01/05 13:42:19;;;;;;;14.77;3.25;;;9.70;99.90;;;;;;5159322;27;20047;-57
2023/01/05 13:45:00;;;;;;;17.85;3.38;;;9.60;99.90;;;;;;5141337;27;20047;-58
2023/01/05 13:47:48;;;;;;;16.17;2.65;;;9.70;99.90;;;;;;5141473;27;20114;-57